Mc Allen Miller International Airport Mc Allen US
ICAO: KMFE
IATA: MFE
Category: Medium
Scheduled Services: Yes

Elevation: 107 ft
TransAlt. 18000 ft.

Airport Communications:
VALLEY APP/DEP:121
ASOS:128.5
ATIS:128.5
CTAF:118.5
GND:121.8
SAN ANGELO RDO:122.2
TWR:118.5
UNICOM:122.95

KMFE Zoom In..

If you have problems with the map follow the link
https://www.worldairports.se/pages/airport.php?
ICAO=KMFE

Runways:

(A) RW 13 length 7120 ft width 150 ft
ILS 111.70 / hdg 134

(B) RW 18 length 2638 ft width 60 ft
---- / hdg 182

(C) RW 31 length 7120 ft width 150 ft
ILS 111.70 / hdg 314

(D) RW 36 length 2638 ft width 60 ft
---- / hdg 2

Location; KMFE
Day. 10 / Time. 02.53 Zulu
* Altimeter: 29.79
* Temperature: 23° c. 73.4°f.
* Wind from: 150° Speed 15 kn.
Dewpoint: 20° c.
Visibility: 9 Statute Miles.
Clouds: Few 1500 ft.

KMFE 100253Z 15015KT 9SM FEW015 23/20 A2979 RMK AO2 SLP086 T02330200 51010


Wind From 150°
Speed 15 kn.

 
 
jpsmedia worldairports.se 2019   terms of use